• Join FlightAware (Why Join?)
  • Login
  • US Flag 
02:27AM EDT


 

Airport Tracker/Info


-or-


 

Live Flight TrackerFlight Track Log ✈ N301DM ✈ 24-Oct-2013 ✈ KLRO - MYAT / TCB

Flight Track Log - Related Links

Times and Time Zones

All times are in EDT time to prevent confusion due to time zone crossing. See the N301DM flight status page for this flight to view local times or setup timezone preferences in your user account.

Time Position Orientation Groundspeed Altitude Reporting Facility
EDT Latitude Longitude Course Direction KTS MPH feet Rate Location/Type
10:11AM 32.8944 -79.6986 112° Southeast 174 200 4,500  Level Jacksonville Center
10:13AM 32.8465 -79.6396 112° Southeast  Level FlightAware Approximate
10:15AM 32.5583 -79.6423 112° Southeast  Level Estimated
10:15AM 32.8100 -79.4300 112° Southeast 207 238 11,100  Level Jacksonville Center
10:16AM 32.7900 -79.3764 114° Southeast 212 244 12,700 1,500 Climbing Jacksonville Center
10:17AM 32.7672 -79.3131 113° Southeast 202 232 14,100 1,440 Climbing Jacksonville Center
10:18AM 32.7444 -79.2472 112° Southeast 202 232 15,600 1,440 Climbing Jacksonville Center
10:19AM 32.7197 -79.1814 114° Southeast 213 245 17,000 1,200 Climbing Jacksonville Center
10:20AM 32.6955 -79.1778 108° East  Level FlightAware Approximate
10:20AM 32.6947 -79.1136 114° Southeast 213 245 18,000  Level Jacksonville Center
10:21AM 32.6755 -79.1108 112° Southeast  Level FlightAware Approximate
10:21AM 32.6697 -79.0453 113° Southeast 213 245 19,300  Level Jacksonville Center
10:22AM 32.6447 -78.9800 114° Southeast 213 245 20,500 1,200 Climbing Jacksonville Center
10:23AM 32.6239 -78.9142 111° Southeast 213 245 21,700 1,200 Climbing Jacksonville Center
10:24AM 32.5967 -78.8489 116° Southeast 213 245 22,900 960 Climbing Jacksonville Center
10:25AM 32.5736 -78.7808 112° Southeast 213 245 23,700 780 Climbing Jacksonville Center
10:26AM 32.5464 -78.7106 115° Southeast 223 257 24,500 660 Climbing Jacksonville Center
10:27AM 32.5186 -78.6356 114° Southeast 235 270 25,100 600 Climbing Jacksonville Center
10:28AM 32.4889 -78.5581 114° Southeast 241 277 25,700 300 Climbing Jacksonville Center
10:29AM 32.4633 -78.4781 111° Southeast 259 298 25,800  Climbing Jacksonville Center
10:30AM 32.4214 -78.4136 128° Southeast 264 304 25,800  Level Jacksonville Center
10:31AM 32.3603 -78.3969 167° South 224 258 25,800  Level Jacksonville Center
10:32AM 32.2928 -78.3783 167° South 224 258 25,800  Level Jacksonville Center
10:33AM 32.2253 -78.3619 168° South 230 265 25,800  Level Jacksonville Center
10:34AM 32.1622 -78.3503 171° South 235 270 25,800  Level Jacksonville Center
10:35AM 32.1014 -78.3386 171° South 235 270 25,800  Level Jacksonville Center
10:36AM 32.0408 -78.3392 180° South 227 261 25,800  Level Jacksonville Center
10:37AM 31.9822 -78.3372 178° South 222 255 25,800  Level Jacksonville Center
10:38AM 31.9281 -78.3350 178° South 210 242 25,800  Level Jacksonville Center
10:39AM 31.8614 -78.3406 184° South 215 247 25,800  Level Jacksonville Center
10:40AM 31.8008 -78.3411 180° South 215 247 25,800  Level Jacksonville Center
10:41AM 31.7444 -78.3392 178° South 215 247 25,800  Level Jacksonville Center
10:42AM 31.6861 -78.3394 180° South 216 249 25,800  Level Jacksonville Center
10:43AM 31.6256 -78.3400 180° South 216 249 25,800 -60 Level Jacksonville Center
10:44AM 31.5631 -78.3431 182° South 216 249 25,700 -60 Descending Jacksonville Center
10:45AM 31.4983 -78.3464 183° South 224 258 25,700 120 Level Jacksonville Center
10:46AM 31.4419 -78.3417 176° South 223 257 26,000 120 Climbing Jacksonville Center
10:47AM 31.3856 -78.3419 180° South 206 237 26,000  Level Jacksonville Center
10:48AM 31.3272 -78.3425 180° South 214 246 26,000  Level Jacksonville Center
10:49AM 31.2706 -78.3403 178° South 211 243 26,000  Level Jacksonville Center
10:50AM 31.2103 -78.3433 182° South 206 237 26,000  Level Jacksonville Center
10:51AM 31.1539 -78.3411 178° South 209 241 26,000  Level Jacksonville Center
10:52AM 31.0933 -78.3467 184° South 211 243 26,000  Level Jacksonville Center
10:53AM 31.0331 -78.3519 184° South 219 252 26,000  Level Jacksonville Center
10:54AM 30.9828 -78.3469 175° South 207 238 26,000  Level Jacksonville Center
10:55AM 30.9244 -78.3475 180° South 214 246 26,000  Level Jacksonville Center
10:56AM 30.8658 -78.3478 180° South 204 235 26,000  Level Jacksonville Center
10:57AM 30.8097 -78.3506 182° South 204 235 26,000  Level Jacksonville Center
10:58AM 30.7531 -78.3436 174° South 210 242 26,000  Level Jacksonville Center
10:59AM 30.6961 -78.3294 168° South 210 242 26,000  Level Jacksonville Center
11:00AM 30.6311 -78.3156 170° South 227 261 26,000  Level Jacksonville Center
11:01AM 30.5844 -78.3008 165° South 213 245 26,000  Level Jacksonville Center
11:02AM 30.5194 -78.2872 170° South 215 247 26,000  Level Jacksonville Center
11:04AM 30.4278 -78.2628 167° South 210 242 26,000  Level Miami Center
11:05AM 30.3758 -78.2503 168° South 210 242 26,000  Level Miami Center
11:06AM 30.3092 -78.2372 170° South 224 258 26,000  Level Miami Center
11:07AM 30.2550 -78.2222 167° South 224 258 26,000  Level Miami Center
11:08AM 30.1967 -78.2167 175° South 214 246 26,000  Level Miami Center
11:09AM 30.1469 -78.1897 155° Southeast 214 246 26,000  Level Miami Center
11:10AM 30.0764 -78.1767 171° South 220 253 26,000  Level Miami Center
11:11AM 30.0139 -78.1689 174° South 233 268 26,000  Level Miami Center
11:12AM 29.9639 -78.1561 168° South 212 244 26,000  Level Miami Center
11:13AM 29.9139 -78.1436 168° South 194 223 26,000  Level Miami Center
11:14AM 29.8578 -78.1286 167° South 194 223 26,000  Level Miami Center
11:15AM 29.7953 -78.1111 166° South 213 245 26,000  Level Miami Center
11:16AM 29.7369 -78.1008 171° South 220 253 26,000  Level Miami Center
11:17AM 29.6767 -78.0858 168° South 230 265 26,000  Level Miami Center
11:18AM 29.6122 -78.0683 167° South 230 265 26,000  Level Miami Center
11:19AM 29.5456 -78.0511 167° South 230 265 26,000  Level Miami Center
11:20AM 29.4853 -78.0408 172° South 238 274 26,000  Level Miami Center
11:21AM 29.4164 -78.0211 166° South 243 280 26,000  Level Miami Center
11:22AM 29.3561 -78.0086 170° South 238 274 26,000  Level Miami Center
11:23AM 29.2875 -77.9911 167° South 248 285 26,000  Level Miami Center
11:24AM 29.2208 -77.9739 167° South 248 285 26,000  Level Miami Center
11:25AM 29.1542 -77.9564 167° South 242 278 26,000  Level Miami Center
11:26AM 29.0917 -77.9439 170° South 242 278 26,000  Level Miami Center
11:27AM 29.0250 -77.9267 167° South 242 278 26,000  Level Miami Center
11:28AM 28.9606 -77.9119 169° South 242 278 26,000  Level Miami Center
11:29AM 28.9000 -77.8972 168° South 236 272 26,000  Level Miami Center
11:30AM 28.8356 -77.8822 168° South 236 272 26,000  Level Miami Center
11:31AM 28.7667 -77.8650 168° South 242 278 26,000  Level Miami Center
11:32AM 28.7064 -77.8503 168° South 241 277 26,000  Level Miami Center
11:33AM 28.6375 -77.8356 169° South 242 278 26,000  Level Miami Center
11:34AM 28.5686 -77.8183 168° South 245 282 26,000  Level Miami Center
11:35AM 28.5042 -77.8036 169° South 245 282 26,100  Climbing Miami Center
11:36AM 28.4436 -77.7867 166° South 236 272 26,100  Level Miami Center
11:37AM 28.3708 -77.7719 170° South 245 282 26,100  Level Miami Center
11:38AM 28.3103 -77.7572 168° South 245 282 26,100  Level Miami Center
11:39AM 28.2436 -77.7403 167° South 244 281 26,100  Level Miami Center
11:40AM 28.1728 -77.7256 170° South 244 281 26,100  Level Miami Center
11:41AM 28.1103 -77.7108 168° South 244 281 26,100 -60 Level Miami Center
11:42AM 28.0392 -77.6917 167° South 246 283 26,000 -360 Descending Miami Center
11:43AM 27.9747 -77.6769 169° South 257 296 25,400 -600 Descending Miami Center
11:44AM 27.9100 -77.6625 169° South 256 295 24,800 -660 Descending Miami Center
11:45AM 27.8308 -77.6478 171° South 268 308 24,100 -1,020 Descending Miami Center
11:46AM 27.7722 -77.6308 166° South 247 284 22,800 -1,260 Descending Miami Center
11:47AM 27.7097 -77.6164 168° South 235 270 21,600 -1,200 Descending Miami Center
11:48AM 27.6492 -77.6019 168° South 228 262 20,400 -1,080 Descending Miami Center
11:49AM 27.5908 -77.5944 173° South 233 268 19,300 -1,260 Descending Miami Center
11:50AM 27.5178 -77.5731 165° South 218 251 17,700 -660 Descending Miami Center
11:51AM 27.4531 -77.5539 165° South 218 251 18,000 120 Climbing Miami Center
11:52AM 27.3906 -77.5417 170° South 218 251 18,000  Level Miami Center
11:53AM 27.3406 -77.5322 170° South 218 251 18,000 -2,100 Level Miami Center
11:54AM 27.3281 -77.5344 189° South 218 251 13,800 -2,100 Descending Miami Center
11:55AM 27.2736 -77.5200 167° South 218 251 13,800  Level Miami Center
11:56AM 27.2069 -77.5011 166° South 218 251 13,800  Level Miami Center
11:57AM 27.1922 -77.4986 171° South 218 251 13,800  Level Miami Center
11:58AM 27.1922 -77.4986 336° Northwest 218 251 13,800 -3,420 Level Miami Center
11:59AM 27.1922 -77.4986 336° Northwest 218 251 7,000 -6,840 Descending Miami Center